Terminal Aerodrome Forecast
Issued by NWS

Home | Current Version | Previous Version | Text Only | Print | Product List | Glossary On
Versions: 1 2 3 4 5 6 7 8 9 10 11 12 13 14 15 16 17 18 19 20 21 22 23 24 25 26 27 28
000
FTUS43 KGRR 011600 AAB
TAFMKG
TAF AMD
KMKG 011611Z 0116/0212 18006KT 1SM -SN BR OVC015
     FM011800 21007KT 5SM -SN BR OVC015
     FM012000 24010KT P6SM OVC025
     FM020600 29010KT P6SM BKN035=

USA.gov is the U.S. government's official web portal to all federal, state and local government web resources and services.